createdAt,value
2017-10-12T00:00:53.037Z,1004.07
2017-10-12T00:01:53.024Z,1004.19
2017-10-12T00:02:53.008Z,1004.2
2017-10-12T00:03:53.005Z,1004.14
2017-10-12T00:04:52.985Z,1004.21
2017-10-12T00:05:52.979Z,1004.12
2017-10-12T00:06:52.957Z,1004.15
2017-10-12T00:07:52.950Z,1004.15
2017-10-12T00:08:52.930Z,1004.08
2017-10-12T00:09:52.928Z,1004.16
2017-10-12T00:10:52.903Z,1004.25
2017-10-12T00:11:52.895Z,1004.21
2017-10-12T00:12:52.879Z,1004.16
2017-10-12T00:13:52.867Z,1004.22
2017-10-12T00:14:52.852Z,1004.21
2017-10-12T00:15:52.858Z,1004.28
2017-10-12T00:16:52.824Z,1004.26
2017-10-12T00:17:52.832Z,1004.28
2017-10-12T00:18:52.798Z,1004.25
2017-10-12T00:19:52.786Z,1004.22
2017-10-12T00:20:53.175Z,1004.26
2017-10-12T00:21:52.760Z,1004.2
2017-10-12T00:22:52.745Z,1004.2
2017-10-12T00:23:52.732Z,1004.29
2017-10-12T00:24:52.718Z,1004.19
2017-10-12T00:25:52.705Z,1004.27
2017-10-12T00:26:52.692Z,1004.22
2017-10-12T00:27:52.678Z,1004.28
2017-10-12T00:28:52.667Z,1004.2
2017-10-12T00:29:52.654Z,1004.17
2017-10-12T00:30:52.643Z,1004.3
2017-10-12T00:31:52.631Z,1004.22
2017-10-12T00:32:52.614Z,1004.2
2017-10-12T00:33:52.599Z,1004.16
2017-10-12T00:34:52.587Z,1004.18
2017-10-12T00:35:52.581Z,1004.36
2017-10-12T00:36:52.560Z,1004.18
2017-10-12T00:37:52.548Z,1004.21
2017-10-12T00:38:52.537Z,1004.2
2017-10-12T00:39:52.521Z,1004.26
2017-10-12T00:40:52.510Z,1004.32
2017-10-12T00:41:52.496Z,1004.29
2017-10-12T00:42:52.482Z,1004.33
2017-10-12T00:43:52.468Z,1004.3
2017-10-12T00:44:52.458Z,1004.33
2017-10-12T00:45:52.461Z,1004.36
2017-10-12T00:46:52.427Z,1004.36
2017-10-12T00:47:52.415Z,1004.29
2017-10-12T00:48:52.403Z,1004.41
2017-10-12T00:49:52.388Z,1004.42
2017-10-12T00:50:52.374Z,1004.4
2017-10-12T00:51:52.366Z,1004.5
2017-10-12T00:52:52.352Z,1004.58
2017-10-12T00:53:52.334Z,1004.48
2017-10-12T00:54:52.322Z,1004.44
2017-10-12T00:55:52.310Z,1004.43
2017-10-12T00:56:52.299Z,1004.47
2017-10-12T00:57:52.288Z,1004.52
2017-10-12T00:58:52.269Z,1004.48
2017-10-12T00:59:52.253Z,1004.5
2017-10-12T01:00:52.240Z,1004.51
2017-10-12T01:01:52.228Z,1004.52
2017-10-12T01:03:52.208Z,1004.41
2017-10-12T01:04:52.185Z,1004.34
2017-10-12T01:05:52.172Z,1004.36
2017-10-12T01:06:52.156Z,1004.38
2017-10-12T01:07:52.144Z,1004.37
2017-10-12T01:08:52.130Z,1004.36
2017-10-12T01:09:52.116Z,1004.36
2017-10-12T01:10:52.101Z,1004.33
2017-10-12T01:11:52.088Z,1004.34
2017-10-12T01:12:52.072Z,1004.34
2017-10-12T01:13:52.058Z,1004.34
2017-10-12T01:14:52.045Z,1004.35
2017-10-12T01:15:52.030Z,1004.3
2017-10-12T01:16:52.017Z,1004.36
2017-10-12T01:17:52.002Z,1004.32
2017-10-12T01:18:51.988Z,1004.39
2017-10-12T01:19:51.973Z,1004.28
2017-10-12T01:20:51.960Z,1004.29
2017-10-12T01:21:51.944Z,1004.24
2017-10-12T01:22:51.928Z,1004.29
2017-10-12T01:23:51.919Z,1004.25
2017-10-12T01:24:51.901Z,1004.31
2017-10-12T01:25:51.885Z,1004.25
2017-10-12T01:26:51.873Z,1004.25
2017-10-12T01:27:51.857Z,1004.19
2017-10-12T01:28:51.844Z,1004.19
2017-10-12T01:29:51.830Z,1004.2
2017-10-12T01:30:51.828Z,1004.18
2017-10-12T01:31:51.808Z,1004.16
2017-10-12T01:32:51.785Z,1004.19
2017-10-12T01:33:51.771Z,1004.2
2017-10-12T01:34:51.756Z,1004.17
2017-10-12T01:35:51.743Z,1004.14
2017-10-12T01:36:51.734Z,1004.18
2017-10-12T01:37:51.719Z,1004.2
2017-10-12T01:38:51.698Z,1004.13
2017-10-12T01:39:51.685Z,1004.09
2017-10-12T01:40:51.669Z,1004.1
2017-10-12T01:41:51.652Z,1004.11
2017-10-12T01:42:51.639Z,1004.11
2017-10-12T01:43:51.625Z,1004.06
2017-10-12T01:44:51.610Z,1004.01
2017-10-12T01:45:51.595Z,1004.02
2017-10-12T01:46:51.581Z,1004.06
2017-10-12T01:47:51.570Z,1004.16
2017-10-12T01:48:51.549Z,1004.04
2017-10-12T01:49:51.541Z,1004.08
2017-10-12T01:50:51.521Z,1004.02
2017-10-12T01:51:51.506Z,1004
2017-10-12T01:52:51.497Z,1004.05
2017-10-12T01:53:51.475Z,1004.03
2017-10-12T01:54:51.463Z,1004.05
2017-10-12T01:55:51.445Z,1004
2017-10-12T01:56:51.431Z,1004.01
2017-10-12T01:57:51.419Z,1004.03
2017-10-12T01:58:51.402Z,1003.99
2017-10-12T01:59:51.388Z,1004.03
2017-10-12T02:00:51.377Z,1004.09
2017-10-12T02:01:51.358Z,1004.09
2017-10-12T02:02:51.344Z,1004.06
2017-10-12T02:03:51.328Z,1004.03
2017-10-12T02:04:51.317Z,1004.12
2017-10-12T02:05:51.301Z,1004.04
2017-10-12T02:06:51.284Z,1004.08
2017-10-12T02:07:51.271Z,1004
2017-10-12T02:08:51.254Z,1003.98
2017-10-12T02:09:51.246Z,1003.93
2017-10-12T02:10:51.226Z,1004.03
2017-10-12T02:11:51.210Z,1004.06
2017-10-12T02:12:51.198Z,1004.11
2017-10-12T02:13:51.185Z,1004.12
2017-10-12T02:14:51.167Z,1004.17
2017-10-12T02:15:51.150Z,1004.11
2017-10-12T02:16:51.136Z,1004.07
2017-10-12T02:17:51.121Z,1004.12
2017-10-12T02:18:51.107Z,1004.14
2017-10-12T02:19:51.093Z,1004.13
2017-10-12T02:20:51.078Z,1004.16
2017-10-12T02:21:51.063Z,1004.12
2017-10-12T02:22:51.048Z,1004.1
2017-10-12T02:23:51.031Z,1004.06
2017-10-12T02:24:51.020Z,1004.01
2017-10-12T02:25:51.004Z,1004.09
2017-10-12T02:26:50.988Z,1004.1
2017-10-12T02:27:50.979Z,1004.07
2017-10-12T02:28:50.959Z,1004.11
2017-10-12T02:29:50.947Z,1004.1
2017-10-12T02:30:50.927Z,1004.13
2017-10-12T02:31:50.916Z,1004.13
2017-10-12T02:32:50.900Z,1004.13
2017-10-12T02:33:50.891Z,1004.1
2017-10-12T02:34:50.871Z,1004.12
2017-10-12T02:35:50.854Z,1004.16
2017-10-12T02:36:50.839Z,1004.13
2017-10-12T02:37:50.826Z,1004.22
2017-10-12T02:38:50.812Z,1004.13
2017-10-12T02:39:50.797Z,1004.17
2017-10-12T02:40:50.780Z,1004.1
2017-10-12T02:41:50.766Z,1004.16
2017-10-12T02:42:50.755Z,1004.22
2017-10-12T02:43:50.739Z,1004.27
2017-10-12T02:44:50.723Z,1004.16
2017-10-12T02:45:50.708Z,1004.17
2017-10-12T02:46:50.693Z,1004.27
2017-10-12T02:47:50.678Z,1004.23
2017-10-12T02:48:50.663Z,1004.19
2017-10-12T02:49:50.647Z,1004.19
2017-10-12T02:50:50.634Z,1004.11
2017-10-12T02:51:50.621Z,1004.16
2017-10-12T02:52:50.604Z,1004.2
2017-10-12T02:53:50.591Z,1004.18
2017-10-12T02:54:50.575Z,1004.13
2017-10-12T02:55:50.561Z,1004.16
2017-10-12T02:56:50.544Z,1004.15
2017-10-12T02:57:50.531Z,1004.18
2017-10-12T02:58:50.518Z,1004.2
2017-10-12T02:59:50.502Z,1004.2
2017-10-12T03:00:50.487Z,1004.17
2017-10-12T03:01:50.472Z,1004.22
2017-10-12T03:02:50.459Z,1004.2
2017-10-12T03:03:50.443Z,1004.17
2017-10-12T03:04:50.430Z,1004.09
2017-10-12T03:05:50.414Z,1004.1
2017-10-12T03:06:50.399Z,1004.24
2017-10-12T03:07:50.386Z,1004.22
2017-10-12T03:08:50.370Z,1004.18
2017-10-12T03:09:50.356Z,1004.17
2017-10-12T03:10:50.376Z,1004.23
2017-10-12T03:11:50.336Z,1004.2
2017-10-12T03:12:50.311Z,1004.22
2017-10-12T03:13:50.300Z,1004.3
2017-10-12T03:14:50.285Z,1004.3
2017-10-12T03:15:50.278Z,1004.23
2017-10-12T03:16:50.256Z,1004.3
2017-10-12T03:17:50.241Z,1004.34
2017-10-12T03:18:50.226Z,1004.32
2017-10-12T03:19:50.211Z,1004.43
2017-10-12T03:20:50.199Z,1004.42
2017-10-12T03:21:50.185Z,1004.44
2017-10-12T03:22:50.171Z,1004.42
2017-10-12T03:23:50.171Z,1004.36
2017-10-12T03:24:50.140Z,1004.44
2017-10-12T03:25:50.125Z,1004.49
2017-10-12T03:26:50.112Z,1004.43
2017-10-12T03:27:50.098Z,1004.45
2017-10-12T03:28:50.084Z,1004.45
2017-10-12T03:29:50.069Z,1004.43
2017-10-12T03:30:50.053Z,1004.45
2017-10-12T03:31:50.041Z,1004.52
2017-10-12T03:32:50.028Z,1004.45
2017-10-12T03:33:50.011Z,1004.47
2017-10-12T03:34:49.997Z,1004.43
2017-10-12T03:35:49.983Z,1004.54
2017-10-12T03:36:49.969Z,1004.46
2017-10-12T03:37:49.953Z,1004.44
2017-10-12T03:38:49.940Z,1004.51
2017-10-12T03:39:49.939Z,1004.51
2017-10-12T03:40:49.912Z,1004.61
2017-10-12T03:41:49.898Z,1004.68
2017-10-12T03:42:49.884Z,1004.68
2017-10-12T03:43:49.868Z,1004.77
2017-10-12T03:44:49.856Z,1004.86
2017-10-12T03:45:49.841Z,1004.83
2017-10-12T03:46:49.827Z,1004.83
2017-10-12T03:47:49.813Z,1004.89
2017-10-12T03:48:49.796Z,1004.58
2017-10-12T03:49:49.786Z,1004.71
2017-10-12T03:50:49.777Z,1004.69
2017-10-12T03:51:49.756Z,1004.77
2017-10-12T03:52:49.741Z,1004.75
2017-10-12T03:53:49.730Z,1004.83
2017-10-12T03:54:49.713Z,1004.86
2017-10-12T03:55:49.700Z,1004.87
2017-10-12T03:56:49.686Z,1004.95
2017-10-12T03:57:49.673Z,1005.01
2017-10-12T03:58:49.656Z,1005.13
2017-10-12T03:59:49.647Z,1005.17
2017-10-12T04:00:49.630Z,1005.24
2017-10-12T04:01:49.616Z,1005.23
2017-10-12T04:02:49.603Z,1005.32
2017-10-12T04:03:49.587Z,1005.26
2017-10-12T04:04:49.573Z,1005.33
2017-10-12T04:05:49.559Z,1005.35
2017-10-12T04:06:49.544Z,1005.37
2017-10-12T04:07:49.531Z,1005.41
2017-10-12T04:08:49.521Z,1005.45
2017-10-12T04:09:49.501Z,1005.46
2017-10-12T04:10:49.491Z,1005.49
2017-10-12T04:11:49.473Z,1005.53
2017-10-12T04:12:49.459Z,1005.56
2017-10-12T04:13:49.445Z,1005.59
2017-10-12T04:14:49.430Z,1005.58
2017-10-12T04:15:49.416Z,1005.51
2017-10-12T04:16:49.402Z,1005.52
2017-10-12T04:17:49.388Z,1005.54
2017-10-12T04:18:49.372Z,1005.63
2017-10-12T04:19:49.359Z,1005.66
2017-10-12T04:20:49.344Z,1005.69
2017-10-12T04:21:49.533Z,1005.69
2017-10-12T04:22:49.322Z,1005.69
2017-10-12T04:23:49.303Z,1005.69
2017-10-12T04:24:49.288Z,1005.73
2017-10-12T04:25:49.275Z,1005.73
2017-10-12T04:26:49.259Z,1005.68
2017-10-12T04:27:49.246Z,1005.67
2017-10-12T04:28:49.241Z,1005.67
2017-10-12T04:29:49.219Z,1005.67
2017-10-12T04:30:49.206Z,1005.72
2017-10-12T04:31:49.188Z,1005.75
2017-10-12T04:32:49.184Z,1005.73
2017-10-12T04:33:49.162Z,1005.79
2017-10-12T04:34:49.148Z,1005.8
2017-10-12T04:35:49.136Z,1005.92
2017-10-12T04:36:49.121Z,1005.93
2017-10-12T04:37:49.105Z,1005.92
2017-10-12T04:38:49.089Z,1005.89
2017-10-12T04:39:49.080Z,1005.84
2017-10-12T04:40:49.062Z,1005.83
2017-10-12T04:41:49.047Z,1005.92
2017-10-12T04:42:49.034Z,1005.71
2017-10-12T04:43:49.020Z,1005.82
2017-10-12T04:44:49.007Z,1005.82
2017-10-12T04:45:48.991Z,1005.86
2017-10-12T04:46:48.976Z,1005.84
2017-10-12T04:47:48.959Z,1005.91
2017-10-12T04:48:48.947Z,1005.96
2017-10-12T04:49:48.932Z,1006.04
2017-10-12T04:50:48.919Z,1006.05
2017-10-12T04:51:48.902Z,1006.11
2017-10-12T04:52:48.889Z,1006.1
2017-10-12T04:53:48.875Z,1006.16
2017-10-12T04:54:48.859Z,1006.2
2017-10-12T04:55:48.847Z,1006.21
2017-10-12T04:56:48.830Z,1006.22
2017-10-12T04:57:48.817Z,1006.3
2017-10-12T04:58:48.806Z,1006.34
2017-10-12T04:59:48.787Z,1006.42
2017-10-12T05:00:48.772Z,1006.39
2017-10-12T05:01:48.757Z,1006.36
2017-10-12T05:02:48.743Z,1006.47
2017-10-12T05:03:48.731Z,1006.42
2017-10-12T05:04:48.715Z,1006.42
2017-10-12T05:05:48.698Z,1006.46
2017-10-12T05:06:48.684Z,1006.46
2017-10-12T05:07:48.670Z,1006.52
2017-10-12T05:08:48.656Z,1006.55
2017-10-12T05:09:48.638Z,1006.61
2017-10-12T05:10:48.626Z,1006.6
2017-10-12T05:11:48.612Z,1006.72
2017-10-12T05:12:48.594Z,1006.73
2017-10-12T05:13:48.581Z,1006.73
2017-10-12T05:14:48.567Z,1006.76
2017-10-12T05:15:48.552Z,1006.84
2017-10-12T05:16:48.537Z,1006.8
2017-10-12T05:17:48.522Z,1006.81
2017-10-12T05:18:48.507Z,1006.86
2017-10-12T05:19:48.492Z,1006.89
2017-10-12T05:20:48.479Z,1006.88
2017-10-12T05:21:48.463Z,1007.03
2017-10-12T05:22:48.447Z,1006.95
2017-10-12T05:23:48.430Z,1006.98
2017-10-12T05:24:48.418Z,1006.97
2017-10-12T05:25:48.404Z,1007.03
2017-10-12T05:26:48.391Z,1007
2017-10-12T05:27:48.372Z,1007.04
2017-10-12T05:28:48.357Z,1007.08
2017-10-12T05:29:48.345Z,1007.09
2017-10-12T05:30:48.327Z,1007.08
2017-10-12T05:31:48.312Z,1007.05
2017-10-12T05:32:48.299Z,1007.06
2017-10-12T05:33:48.284Z,1007.06
2017-10-12T05:34:48.267Z,1007.12
2017-10-12T05:35:48.253Z,1007.06
2017-10-12T05:36:48.238Z,1007.19
2017-10-12T05:37:48.224Z,1007.18
2017-10-12T05:38:48.209Z,1007.19
2017-10-12T05:39:48.192Z,1007.26
2017-10-12T05:40:48.180Z,1007.34
2017-10-12T05:41:48.164Z,1007.27
2017-10-12T05:42:48.146Z,1007.39
2017-10-12T05:43:48.132Z,1007.37
2017-10-12T05:44:48.118Z,1007.41
2017-10-12T05:45:48.101Z,1007.4
2017-10-12T05:46:48.088Z,1007.36
2017-10-12T05:47:48.075Z,1007.42
2017-10-12T05:48:48.057Z,1007.44
2017-10-12T05:49:48.043Z,1007.43
2017-10-12T05:50:48.026Z,1007.47
2017-10-12T05:51:48.014Z,1007.56
2017-10-12T05:52:47.999Z,1007.6
2017-10-12T05:53:47.980Z,1007.63
2017-10-12T05:54:47.964Z,1007.59
2017-10-12T05:55:47.952Z,1007.6
2017-10-12T05:56:47.935Z,1007.66
2017-10-12T05:57:47.919Z,1007.65
2017-10-12T05:58:47.911Z,1007.69
2017-10-12T05:59:47.890Z,1007.73
2017-10-12T06:00:47.876Z,1007.68
2017-10-12T06:01:47.867Z,1007.7
2017-10-12T06:02:47.846Z,1007.69
2017-10-12T06:03:47.830Z,1007.7
2017-10-12T06:04:47.818Z,1007.75
2017-10-12T06:05:47.799Z,1007.8
2017-10-12T06:06:47.784Z,1007.76
2017-10-12T06:07:47.767Z,1007.86
2017-10-12T06:08:47.753Z,1007.81
2017-10-12T06:09:47.743Z,1007.86
2017-10-12T06:10:47.723Z,1007.87
2017-10-12T06:11:47.708Z,1007.85
2017-10-12T06:12:47.694Z,1007.88
2017-10-12T06:13:47.678Z,1007.96
2017-10-12T06:14:47.662Z,1007.94
2017-10-12T06:15:47.648Z,1008
2017-10-12T06:16:47.633Z,1008.05
2017-10-12T06:17:47.618Z,1008.07
2017-10-12T06:18:47.602Z,1008.1
2017-10-12T06:19:47.593Z,1008.12
2017-10-12T06:20:47.576Z,1008.19
2017-10-12T06:21:47.761Z,1008.15
2017-10-12T06:22:47.543Z,1008.27
2017-10-12T06:23:47.527Z,1008.27
2017-10-12T06:24:47.512Z,1008.32
2017-10-12T06:25:47.497Z,1008.33
2017-10-12T06:26:47.484Z,1008.35
2017-10-12T06:27:47.468Z,1008.39
2017-10-12T06:28:47.452Z,1008.43
2017-10-12T06:29:47.438Z,1008.45
2017-10-12T06:30:47.423Z,1008.46
2017-10-12T06:31:47.407Z,1008.48
2017-10-12T06:32:47.394Z,1008.45
2017-10-12T06:33:47.375Z,1008.47
2017-10-12T06:34:47.361Z,1008.46
2017-10-12T06:35:47.347Z,1008.52
2017-10-12T06:36:47.330Z,1008.66
2017-10-12T06:37:47.315Z,1008.58
2017-10-12T06:38:47.302Z,1008.68
2017-10-12T06:39:47.285Z,1008.7
2017-10-12T06:40:47.271Z,1008.64
2017-10-12T06:41:47.257Z,1008.61
2017-10-12T06:42:47.241Z,1008.66
2017-10-12T06:43:47.227Z,1008.7
2017-10-12T06:44:47.211Z,1008.72
2017-10-12T06:45:47.198Z,1008.73
2017-10-12T06:46:47.182Z,1008.73
2017-10-12T06:47:47.166Z,1008.76
2017-10-12T06:48:47.153Z,1008.74
2017-10-12T06:49:47.137Z,1008.81
2017-10-12T06:50:47.123Z,1008.77
2017-10-12T06:51:47.109Z,1008.86
2017-10-12T06:52:47.099Z,1008.85
2017-10-12T06:53:47.078Z,1008.91
2017-10-12T06:54:47.092Z,1008.96
2017-10-12T06:55:47.052Z,1008.92
2017-10-12T06:56:47.033Z,1009.01
2017-10-12T06:57:47.019Z,1009.02
2017-10-12T06:58:47.004Z,1009.03
2017-10-12T06:59:46.988Z,1009.09
2017-10-12T07:00:46.974Z,1009.12
2017-10-12T07:01:46.959Z,1009.11
2017-10-12T07:02:46.943Z,1009.16
2017-10-12T07:03:46.930Z,1009.13
2017-10-12T07:04:46.916Z,1009.15
2017-10-12T07:05:46.901Z,1009.23
2017-10-12T07:06:46.884Z,1009.19
2017-10-12T07:07:46.873Z,1009.2
2017-10-12T07:08:46.856Z,1009.17
2017-10-12T07:09:46.839Z,1009.21
2017-10-12T07:10:46.826Z,1009.3
2017-10-12T07:11:46.811Z,1009.28
2017-10-12T07:12:46.795Z,1009.3
2017-10-12T07:13:46.780Z,1009.3
2017-10-12T07:14:46.767Z,1009.32
2017-10-12T07:15:46.753Z,1009.31
2017-10-12T07:16:46.736Z,1009.37
2017-10-12T07:17:46.723Z,1009.41
2017-10-12T07:18:46.708Z,1009.42
2017-10-12T07:19:46.695Z,1009.43
2017-10-12T07:20:46.679Z,1009.49
2017-10-12T07:21:46.662Z,1009.44
2017-10-12T07:22:46.650Z,1009.54
2017-10-12T07:23:46.636Z,1009.51
2017-10-12T07:24:46.619Z,1009.51
2017-10-12T07:25:46.608Z,1009.53
2017-10-12T07:26:46.591Z,1009.55
2017-10-12T07:27:46.580Z,1009.63
2017-10-12T07:28:46.560Z,1009.64
2017-10-12T07:29:46.547Z,1009.69
2017-10-12T07:30:46.535Z,1009.64
2017-10-12T07:31:46.515Z,1009.64
2017-10-12T07:32:46.502Z,1009.69
2017-10-12T07:33:46.492Z,1009.77
2017-10-12T07:34:46.476Z,1009.73
2017-10-12T07:35:46.459Z,1009.7
2017-10-12T07:36:46.446Z,1009.72
2017-10-12T07:37:46.429Z,1009.67
2017-10-12T07:38:46.414Z,1009.73
2017-10-12T07:39:46.404Z,1009.81
2017-10-12T07:40:46.388Z,1009.8
2017-10-12T07:41:46.372Z,1009.82
2017-10-12T07:42:46.378Z,1009.84
2017-10-12T07:43:46.343Z,1009.75
2017-10-12T07:44:46.328Z,1009.83
2017-10-12T07:45:46.315Z,1009.82
2017-10-12T07:46:46.301Z,1009.84
2017-10-12T07:47:46.286Z,1009.88
2017-10-12T07:48:46.272Z,1009.89
2017-10-12T07:49:46.265Z,1009.92
2017-10-12T07:50:46.244Z,1010.01
2017-10-12T07:51:46.231Z,1010
2017-10-12T07:52:46.218Z,1010.01
2017-10-12T07:53:46.203Z,1010.01
2017-10-12T07:54:46.189Z,1009.95
2017-10-12T07:55:46.178Z,1009.98
2017-10-12T07:56:46.164Z,1010
2017-10-12T07:57:46.144Z,1009.94
2017-10-12T07:58:46.134Z,1009.91
2017-10-12T07:59:46.118Z,1009.89
2017-10-12T08:00:46.105Z,1009.94
2017-10-12T08:01:46.090Z,1010.02
2017-10-12T08:02:46.079Z,1010.07
2017-10-12T08:03:46.061Z,1010.09
2017-10-12T08:04:46.048Z,1010.09
2017-10-12T08:05:46.033Z,1010.14
2017-10-12T08:06:46.018Z,1010.19
2017-10-12T08:07:46.009Z,1010.15
2017-10-12T08:08:45.993Z,1010.35
2017-10-12T08:09:45.977Z,1010.16
2017-10-12T08:10:45.963Z,1010.22
2017-10-12T08:11:45.949Z,1010.24
2017-10-12T08:12:45.941Z,1010.23
2017-10-12T08:13:45.921Z,1010.17
2017-10-12T08:14:45.908Z,1010.13
2017-10-12T08:15:45.894Z,1010.26
2017-10-12T08:16:45.880Z,1010.24
2017-10-12T08:17:45.868Z,1010.32
2017-10-12T08:18:45.852Z,1010.27
2017-10-12T08:19:45.839Z,1010.32
2017-10-12T08:20:45.824Z,1010.3
2017-10-12T08:21:46.017Z,1010.27
2017-10-12T08:22:45.798Z,1010.39
2017-10-12T08:23:45.782Z,1010.41
2017-10-12T08:24:45.777Z,1010.4
2017-10-12T08:25:45.759Z,1010.37
2017-10-12T08:26:45.747Z,1010.42
2017-10-12T08:27:45.731Z,1010.44
2017-10-12T08:28:45.716Z,1010.46
2017-10-12T08:29:45.703Z,1010.43
2017-10-12T08:30:45.687Z,1010.46
2017-10-12T08:31:45.674Z,1010.54
2017-10-12T08:32:45.661Z,1010.56
2017-10-12T08:33:45.648Z,1010.55
2017-10-12T08:34:45.634Z,1010.56
2017-10-12T08:35:45.621Z,1010.52
2017-10-12T08:36:45.607Z,1010.55
2017-10-12T08:37:45.593Z,1010.55
2017-10-12T08:38:45.582Z,1010.49
2017-10-12T08:39:45.566Z,1010.52
2017-10-12T08:40:45.554Z,1010.55
2017-10-12T08:41:45.539Z,1010.64
2017-10-12T08:42:45.525Z,1010.6
2017-10-12T08:43:45.511Z,1010.64
2017-10-12T08:44:45.498Z,1010.67
2017-10-12T08:45:45.485Z,1010.67
2017-10-12T08:46:45.471Z,1010.79
2017-10-12T08:47:45.459Z,1010.69
2017-10-12T08:48:45.447Z,1010.73
2017-10-12T08:49:45.430Z,1010.69
2017-10-12T08:50:45.419Z,1010.62
2017-10-12T08:51:45.406Z,1010.65
2017-10-12T08:52:45.393Z,1010.68
2017-10-12T08:53:45.377Z,1010.77
2017-10-12T08:54:45.365Z,1010.72
2017-10-12T08:55:45.351Z,1010.76
2017-10-12T08:56:45.338Z,1010.68
2017-10-12T08:57:45.324Z,1010.83
2017-10-12T08:58:45.311Z,1010.82
2017-10-12T08:59:45.297Z,1010.84
2017-10-12T09:00:45.283Z,1010.78
2017-10-12T09:01:45.271Z,1010.8
2017-10-12T09:02:45.260Z,1010.83
2017-10-12T09:03:45.243Z,1010.87
2017-10-12T09:04:45.233Z,1010.89
2017-10-12T09:05:45.221Z,1010.96
2017-10-12T09:06:45.207Z,1010.93
2017-10-12T09:07:45.194Z,1010.94
2017-10-12T09:08:45.179Z,1010.94
2017-10-12T09:09:45.165Z,1010.97
2017-10-12T09:10:45.152Z,1010.94
2017-10-12T09:11:45.142Z,1010.95
2017-10-12T09:12:45.127Z,1010.92
2017-10-12T09:13:45.114Z,1010.88
2017-10-12T09:14:45.103Z,1011.04
2017-10-12T09:15:45.088Z,1010.98
2017-10-12T09:16:45.077Z,1011.02
2017-10-12T09:17:45.062Z,1011.05
2017-10-12T09:18:45.049Z,1011.1
2017-10-12T09:19:45.036Z,1011.05
2017-10-12T09:20:45.025Z,1011.1
2017-10-12T09:21:45.013Z,1011.12
2017-10-12T09:22:44.999Z,1011.11
2017-10-12T09:23:44.983Z,1011.22
2017-10-12T09:24:44.971Z,1011.18
2017-10-12T09:25:44.959Z,1011.24
2017-10-12T09:26:44.947Z,1011.29
2017-10-12T09:27:44.937Z,1011.26
2017-10-12T09:28:44.921Z,1011.18
2017-10-12T09:29:44.908Z,1011.22
2017-10-12T09:30:44.893Z,1011.23
2017-10-12T09:31:44.884Z,1011.25
2017-10-12T09:32:44.869Z,1011.29
2017-10-12T09:33:44.857Z,1011.31
2017-10-12T09:34:44.848Z,1011.28
2017-10-12T09:35:44.831Z,1011.35
2017-10-12T09:36:44.821Z,1011.37
2017-10-12T09:37:44.809Z,1011.41
2017-10-12T09:38:44.795Z,1011.43
2017-10-12T09:39:44.784Z,1011.36
2017-10-12T09:40:44.770Z,1011.35
2017-10-12T09:41:44.761Z,1011.35
2017-10-12T09:42:44.746Z,1011.39
2017-10-12T09:43:44.735Z,1011.33
2017-10-12T09:44:44.722Z,1011.47
2017-10-12T09:45:44.709Z,1011.46
2017-10-12T09:46:44.709Z,1011.44
2017-10-12T09:47:44.683Z,1011.49
2017-10-12T09:48:44.672Z,1011.54
2017-10-12T09:49:44.659Z,1011.51
2017-10-12T09:50:44.646Z,1011.54
2017-10-12T09:51:44.636Z,1011.59
2017-10-12T09:52:44.623Z,1011.56
2017-10-12T09:53:44.609Z,1011.55
2017-10-12T09:54:44.597Z,1011.54
2017-10-12T09:55:44.585Z,1011.55
2017-10-12T09:56:44.574Z,1011.66
2017-10-12T09:57:44.561Z,1011.6
2017-10-12T09:58:44.549Z,1011.58
2017-10-12T09:59:44.538Z,1011.58
2017-10-12T10:00:44.525Z,1011.63
2017-10-12T10:01:44.517Z,1011.62
2017-10-12T10:02:44.498Z,1011.74
2017-10-12T10:03:44.487Z,1011.77
2017-10-12T10:04:44.475Z,1011.75
2017-10-12T10:05:44.462Z,1011.64
2017-10-12T10:06:44.450Z,1011.75
2017-10-12T10:07:44.438Z,1011.74
2017-10-12T10:08:44.426Z,1011.67
2017-10-12T10:09:44.412Z,1011.81
2017-10-12T10:10:44.409Z,1011.89
2017-10-12T10:11:44.391Z,1011.86
2017-10-12T10:12:44.379Z,1011.88
2017-10-12T10:13:44.365Z,1011.84
2017-10-12T10:14:44.356Z,1011.89
2017-10-12T10:15:44.343Z,1011.85
2017-10-12T10:16:44.331Z,1011.85
2017-10-12T10:17:44.324Z,1011.91
2017-10-12T10:18:44.306Z,1011.92
2017-10-12T10:19:44.293Z,1011.89
2017-10-12T10:20:44.283Z,1011.97
2017-10-12T10:21:44.472Z,1011.91
2017-10-12T10:22:44.260Z,1011.92
2017-10-12T10:23:44.248Z,1011.91
2017-10-12T10:24:44.234Z,1011.92
2017-10-12T10:25:44.225Z,1011.97
2017-10-12T10:26:44.213Z,1011.99
2017-10-12T10:27:44.200Z,1012.03
2017-10-12T10:28:44.194Z,1012.01
2017-10-12T10:29:44.177Z,1012.05
2017-10-12T10:30:44.163Z,1012.02
2017-10-12T10:31:44.152Z,1012.1
2017-10-12T10:32:44.139Z,1012.06
2017-10-12T10:33:44.138Z,1012.15
2017-10-12T10:34:44.120Z,1012.1
2017-10-12T10:35:44.114Z,1012.1
2017-10-12T10:36:44.101Z,1012.15
2017-10-12T10:37:44.088Z,1012.22
2017-10-12T10:38:44.068Z,1012.25
2017-10-12T10:39:44.058Z,1012.27
2017-10-12T10:40:44.049Z,1012.24
2017-10-12T10:41:44.040Z,1012.31
2017-10-12T10:42:44.022Z,1012.33
2017-10-12T10:43:44.010Z,1012.43
2017-10-12T10:44:43.998Z,1012.33
2017-10-12T10:45:43.986Z,1012.31
2017-10-12T10:46:43.975Z,1012.3
2017-10-12T10:47:43.964Z,1012.26
2017-10-12T10:48:43.952Z,1012.28
2017-10-12T10:49:43.940Z,1012.27
2017-10-12T10:50:43.930Z,1012.29
2017-10-12T10:51:43.920Z,1012.31
2017-10-12T10:52:43.903Z,1012.31
2017-10-12T10:53:43.896Z,1012.3
2017-10-12T10:54:43.886Z,1012.37
2017-10-12T10:55:43.872Z,1012.44
2017-10-12T10:56:43.862Z,1012.37
2017-10-12T10:57:43.850Z,1012.54
2017-10-12T10:58:43.837Z,1012.38
2017-10-12T10:59:43.825Z,1012.4
2017-10-12T11:00:43.814Z,1012.39
2017-10-12T11:01:43.802Z,1012.4
2017-10-12T11:02:43.792Z,1012.41
2017-10-12T11:03:43.784Z,1012.4
2017-10-12T11:04:43.770Z,1012.39
2017-10-12T11:05:43.759Z,1012.35
2017-10-12T11:06:43.751Z,1012.3
2017-10-12T11:07:43.738Z,1012.29
2017-10-12T11:08:43.729Z,1012.29
2017-10-12T11:09:43.713Z,1012.31
2017-10-12T11:10:43.701Z,1012.34
2017-10-12T11:11:43.690Z,1012.39
2017-10-12T11:12:43.682Z,1012.36
2017-10-12T11:13:43.668Z,1012.3
2017-10-12T11:14:43.656Z,1012.37
2017-10-12T11:15:43.645Z,1012.34
2017-10-12T11:16:43.635Z,1012.32
2017-10-12T11:17:43.623Z,1012.36
2017-10-12T11:18:43.610Z,1012.39
2017-10-12T11:19:43.600Z,1012.3
2017-10-12T11:20:43.588Z,1012.38
2017-10-12T11:21:43.577Z,1012.38
2017-10-12T11:22:43.572Z,1012.47
2017-10-12T11:23:43.573Z,1012.52
2017-10-12T11:24:43.544Z,1012.51
2017-10-12T11:25:43.534Z,1012.53
2017-10-12T11:26:43.520Z,1012.6
2017-10-12T11:27:43.510Z,1012.61
2017-10-12T11:28:43.500Z,1012.59
2017-10-12T11:29:43.489Z,1012.6
2017-10-12T11:30:43.478Z,1012.61
2017-10-12T11:31:43.466Z,1012.57
2017-10-12T11:32:43.454Z,1012.56
2017-10-12T11:33:43.446Z,1012.61
2017-10-12T11:34:43.434Z,1012.59
2017-10-12T11:35:43.424Z,1012.55
2017-10-12T11:36:43.411Z,1012.53
2017-10-12T11:37:43.404Z,1012.58
2017-10-12T11:38:43.392Z,1012.55
2017-10-12T11:39:43.381Z,1012.45
2017-10-12T11:40:43.373Z,1012.48
2017-10-12T11:41:43.360Z,1012.47
2017-10-12T11:42:43.351Z,1012.48
2017-10-12T11:43:43.342Z,1012.45
2017-10-12T11:44:43.330Z,1012.49
2017-10-12T11:45:43.321Z,1012.46
2017-10-12T11:46:43.311Z,1012.42
2017-10-12T11:47:43.297Z,1012.4
2017-10-12T11:48:43.289Z,1012.48
2017-10-12T11:49:43.284Z,1012.43
2017-10-12T11:50:43.271Z,1012.4
2017-10-12T11:51:43.260Z,1012.48
2017-10-12T11:52:43.253Z,1012.53
2017-10-12T11:53:43.241Z,1012.56
2017-10-12T11:54:43.240Z,1012.62
2017-10-12T11:55:43.226Z,1012.42
2017-10-12T11:56:43.214Z,1012.34
2017-10-12T11:57:43.213Z,1012.41
2017-10-12T11:58:43.196Z,1012.36
2017-10-12T11:59:43.190Z,1012.33
2017-10-12T12:00:43.179Z,1012.3
2017-10-12T12:01:43.166Z,1012.31
2017-10-12T12:02:43.157Z,1012.36
2017-10-12T12:03:43.148Z,1012.33
2017-10-12T12:04:43.139Z,1012.35
2017-10-12T12:05:43.128Z,1012.42
2017-10-12T12:06:43.128Z,1012.44
2017-10-12T12:07:43.109Z,1012.46
2017-10-12T12:08:43.100Z,1012.52
2017-10-12T12:09:43.090Z,1012.52